createdAt,value
2022-09-30T00:01:52.106Z,75.70
2022-09-30T00:04:23.600Z,75.90
2022-09-30T00:06:53.646Z,76.10
2022-09-30T00:09:21.797Z,76.10
2022-09-30T00:11:49.275Z,76.10
2022-09-30T00:14:23.169Z,76.10
2022-09-30T00:16:50.959Z,76.10
2022-09-30T00:19:19.271Z,76.30
2022-09-30T00:21:46.835Z,76.50
2022-09-30T00:24:14.360Z,76.50
2022-09-30T00:26:41.851Z,76.70
2022-09-30T00:29:10.985Z,76.90
2022-09-30T00:31:38.571Z,77.00
2022-09-30T00:34:09.321Z,77.90
2022-09-30T00:36:43.996Z,77.30
2022-09-30T00:39:40.998Z,77.50
2022-09-30T00:42:14.356Z,77.70
2022-09-30T00:44:53.362Z,77.70
2022-09-30T00:47:52.072Z,77.80
2022-09-30T00:50:42.381Z,77.90
2022-09-30T00:53:15.710Z,78.00
2022-09-30T00:56:00.211Z,78.00
2022-09-30T00:58:45.202Z,78.00
2022-09-30T01:01:14.310Z,78.00
2022-09-30T01:03:50.248Z,78.10
2022-09-30T01:06:21.937Z,78.30
2022-09-30T01:08:49.894Z,78.40
2022-09-30T01:11:18.079Z,78.50
2022-09-30T01:13:50.648Z,78.60
2022-09-30T01:16:49.107Z,78.60
2022-09-30T01:19:40.328Z,78.70
2022-09-30T01:22:33.250Z,78.80
2022-09-30T01:25:21.941Z,78.80
2022-09-30T01:28:16.706Z,78.80
2022-09-30T01:31:17.958Z,79.10
2022-09-30T01:34:24.455Z,79.10
2022-09-30T01:37:37.685Z,79.20
2022-09-30T01:40:14.490Z,79.50
2022-09-30T01:43:17.079Z,79.60
2022-09-30T01:45:58.507Z,80.00
2022-09-30T01:48:44.439Z,80.10
2022-09-30T01:51:33.124Z,80.40
2022-09-30T01:54:18.339Z,80.40
2022-09-30T01:56:52.850Z,80.40
2022-09-30T01:59:32.489Z,80.50
2022-09-30T02:02:10.781Z,80.70
2022-09-30T02:04:47.513Z,80.80
2022-09-30T02:07:30.711Z,80.90
2022-09-30T02:10:12.476Z,81.00
2022-09-30T02:12:49.947Z,81.40
2022-09-30T02:15:26.655Z,81.50
2022-09-30T02:18:04.116Z,81.60
2022-09-30T02:20:38.339Z,81.60
2022-09-30T02:23:31.465Z,81.60
2022-09-30T02:26:10.390Z,81.50
2022-09-30T02:28:47.502Z,81.60
2022-09-30T02:31:17.416Z,81.60
2022-09-30T02:33:56.526Z,81.60
2022-09-30T02:36:38.171Z,81.70
2022-09-30T02:39:20.055Z,81.60
2022-09-30T02:42:00.443Z,81.60
2022-09-30T02:44:28.143Z,81.60
2022-09-30T02:47:11.400Z,81.60
2022-09-30T02:49:57.113Z,81.60
2022-09-30T02:52:47.114Z,81.60
2022-09-30T02:55:46.050Z,81.90
2022-09-30T02:58:21.487Z,82.10
2022-09-30T03:00:50.594Z,82.10
2022-09-30T03:03:22.803Z,82.40
2022-09-30T03:05:51.267Z,82.50
2022-09-30T03:08:18.992Z,82.60
2022-09-30T03:10:51.037Z,82.80
2022-09-30T03:13:40.040Z,83.30
2022-09-30T03:16:48.824Z,84.00
2022-09-30T03:19:49.369Z,84.60
2022-09-30T03:22:28.003Z,84.90
2022-09-30T03:25:29.026Z,85.00
2022-09-30T03:28:27.999Z,85.40
2022-09-30T03:31:17.142Z,85.50
2022-09-30T03:33:55.583Z,86.00
2022-09-30T03:36:36.872Z,86.50
2022-09-30T03:39:42.667Z,86.70
2022-09-30T03:42:40.512Z,86.70
2022-09-30T03:45:24.749Z,87.00
2022-09-30T03:47:59.140Z,87.30
2022-09-30T03:50:31.417Z,87.70
2022-09-30T03:52:58.981Z,88.10
2022-09-30T03:55:27.031Z,88.40
2022-09-30T03:57:54.570Z,88.70
2022-09-30T04:00:21.852Z,88.70
2022-09-30T04:02:49.108Z,88.90
2022-09-30T04:05:16.460Z,89.20
2022-09-30T04:07:43.808Z,89.50
2022-09-30T04:10:11.985Z,89.70
2022-09-30T04:12:39.179Z,90.00
2022-09-30T04:15:07.212Z,90.10
2022-09-30T04:17:34.412Z,90.30
2022-09-30T04:20:01.822Z,90.50
2022-09-30T04:22:29.070Z,90.80
2022-09-30T04:24:56.378Z,90.90
2022-09-30T04:27:23.592Z,91.20
2022-09-30T04:29:51.039Z,91.40
2022-09-30T04:32:21.510Z,91.60
2022-09-30T04:34:48.749Z,91.70
2022-09-30T04:37:16.263Z,91.90
2022-09-30T04:39:44.350Z,92.20
2022-09-30T04:42:12.238Z,92.20
2022-09-30T04:44:39.504Z,92.50
2022-09-30T04:47:12.128Z,92.70
2022-09-30T04:49:39.391Z,92.70
2022-09-30T04:52:06.619Z,92.80
2022-09-30T04:54:33.794Z,92.80
2022-09-30T04:57:00.954Z,92.80
2022-09-30T04:59:28.736Z,92.90
2022-09-30T05:01:56.085Z,93.10
2022-09-30T05:04:23.314Z,93.30
2022-09-30T05:06:50.592Z,93.50
2022-09-30T05:09:17.944Z,93.60
2022-09-30T05:11:45.230Z,93.70
2022-09-30T05:14:12.551Z,93.90
2022-09-30T05:16:39.886Z,93.90
2022-09-30T05:19:07.147Z,94.00
2022-09-30T05:21:35.597Z,94.00
2022-09-30T05:24:03.536Z,94.00
2022-09-30T05:26:30.845Z,94.10
2022-09-30T05:28:58.544Z,94.10
2022-09-30T05:31:27.175Z,94.10
2022-09-30T05:33:58.056Z,94.00
2022-09-30T05:36:25.895Z,94.00
2022-09-30T05:38:54.524Z,93.90
2022-09-30T05:41:22.146Z,93.90
2022-09-30T05:43:49.663Z,94.20
2022-09-30T05:46:19.370Z,94.10
2022-09-30T05:48:47.636Z,94.20
2022-09-30T05:51:15.375Z,94.10
2022-09-30T05:53:43.160Z,94.20
2022-09-30T05:56:11.497Z,94.20
2022-09-30T05:58:40.512Z,94.40
2022-09-30T06:01:15.940Z,94.50
2022-09-30T06:03:48.253Z,94.50
2022-09-30T06:06:16.863Z,94.60
2022-09-30T06:08:44.590Z,94.60
2022-09-30T06:11:19.161Z,94.70
2022-09-30T06:13:47.982Z,94.60
2022-09-30T06:16:18.551Z,94.70
2022-09-30T06:18:46.089Z,94.80
2022-09-30T06:21:17.685Z,94.90
2022-09-30T06:23:45.194Z,95.00
2022-09-30T06:26:14.425Z,95.00
2022-09-30T06:28:44.009Z,95.10
2022-09-30T06:31:12.197Z,95.10
2022-09-30T06:33:39.559Z,95.30
2022-09-30T06:36:07.260Z,95.40
2022-09-30T06:38:40.501Z,95.40
2022-09-30T06:41:08.601Z,95.50
2022-09-30T06:43:42.751Z,95.80
2022-09-30T06:46:30.571Z,95.50
2022-09-30T06:49:13.245Z,95.70
2022-09-30T06:51:48.359Z,95.80
2022-09-30T06:54:15.727Z,95.90
2022-09-30T06:56:44.102Z,95.90
2022-09-30T06:59:11.868Z,96.00
2022-09-30T07:01:39.156Z,96.10
2022-09-30T07:04:09.838Z,96.20
2022-09-30T07:06:39.173Z,96.20
2022-09-30T07:09:07.559Z,96.30
2022-09-30T07:11:37.581Z,96.10
2022-09-30T07:14:10.309Z,95.90
2022-09-30T07:16:38.633Z,95.90
2022-09-30T07:19:07.536Z,95.90
2022-09-30T07:21:34.855Z,96.00
2022-09-30T07:24:02.347Z,96.00
2022-09-30T07:26:31.023Z,95.70
2022-09-30T07:29:00.348Z,95.70
2022-09-30T07:31:33.080Z,95.50
2022-09-30T07:34:07.297Z,95.30
2022-09-30T07:36:39.421Z,95.20
2022-09-30T07:39:10.883Z,95.20
2022-09-30T07:41:40.918Z,95.10
2022-09-30T07:44:14.980Z,95.00
2022-09-30T07:46:44.704Z,95.00
2022-09-30T07:49:37.947Z,94.70
2022-09-30T07:52:05.510Z,94.60
2022-09-30T07:54:38.742Z,94.50
2022-09-30T07:57:10.854Z,94.50
2022-09-30T07:59:42.117Z,94.60
2022-09-30T08:02:19.101Z,94.70
2022-09-30T08:04:46.790Z,94.60
2022-09-30T08:07:16.526Z,94.50
2022-09-30T08:09:43.904Z,94.40
2022-09-30T08:12:11.585Z,94.40
2022-09-30T08:14:39.122Z,94.20
2022-09-30T08:17:06.497Z,94.00
2022-09-30T08:19:34.084Z,93.70
2022-09-30T08:24:31.284Z,93.80
2022-09-30T08:26:58.918Z,93.30
2022-09-30T08:32:13.739Z,93.00
2022-09-30T08:34:41.088Z,93.00
2022-09-30T08:37:10.280Z,93.00
2022-09-30T08:39:39.091Z,92.70
2022-09-30T08:42:50.609Z,92.60
2022-09-30T08:45:52.053Z,92.50
2022-09-30T08:49:21.568Z,92.20
2022-09-30T08:51:51.988Z,91.70
2022-09-30T08:54:25.548Z,91.50
2022-09-30T08:56:53.805Z,91.60
2022-09-30T08:59:45.891Z,91.10
2022-09-30T09:02:31.064Z,90.90
2022-09-30T09:05:05.114Z,90.50
2022-09-30T09:07:54.282Z,90.30
2022-09-30T09:10:28.574Z,90.20
2022-09-30T09:13:38.934Z,89.80
2022-09-30T09:16:27.610Z,90.10
2022-09-30T09:19:14.804Z,89.80
2022-09-30T09:22:02.736Z,89.30
2022-09-30T09:24:38.299Z,88.30
2022-09-30T09:27:35.863Z,88.00
2022-09-30T09:30:19.573Z,86.80
2022-09-30T09:33:12.677Z,85.10
2022-09-30T09:36:10.404Z,84.80
2022-09-30T09:39:03.993Z,84.30
2022-09-30T09:42:02.921Z,83.50
2022-09-30T09:45:14.504Z,82.50
2022-09-30T09:47:45.714Z,81.90
2022-09-30T09:51:11.694Z,81.30
2022-09-30T09:53:58.169Z,81.30
2022-09-30T09:56:34.559Z,81.40
2022-09-30T09:59:19.761Z,81.50
2022-09-30T10:01:53.622Z,81.10
2022-09-30T10:04:30.618Z,80.60
2022-09-30T10:07:14.395Z,80.90
2022-09-30T10:09:50.656Z,80.30
2022-09-30T10:12:27.389Z,78.80
2022-09-30T10:15:24.243Z,80.20
2022-09-30T10:17:59.569Z,79.30
2022-09-30T10:20:36.659Z,78.60
2022-09-30T10:23:21.042Z,78.30
2022-09-30T10:26:28.666Z,77.90
2022-09-30T10:29:00.315Z,78.40
2022-09-30T10:31:35.160Z,78.30
2022-09-30T10:34:22.247Z,77.70
2022-09-30T10:36:50.415Z,78.30
2022-09-30T10:39:36.516Z,77.70
2022-09-30T10:42:28.696Z,77.10
2022-09-30T10:45:09.479Z,76.80
2022-09-30T10:47:44.848Z,77.00
2022-09-30T10:50:21.435Z,76.80
2022-09-30T10:53:00.056Z,77.00
2022-09-30T10:55:42.721Z,77.30
2022-09-30T10:58:47.787Z,77.00
2022-09-30T11:01:44.183Z,76.70
2022-09-30T11:04:58.995Z,76.10
2022-09-30T11:07:42.728Z,76.40
2022-09-30T11:10:28.714Z,75.80
2022-09-30T11:13:10.662Z,75.20
2022-09-30T11:15:57.641Z,75.00
2022-09-30T11:19:16.332Z,74.20
2022-09-30T11:21:59.598Z,73.80
2022-09-30T11:24:46.070Z,75.00
2022-09-30T11:28:09.549Z,74.10
2022-09-30T11:30:57.257Z,74.20
2022-09-30T11:33:46.313Z,74.20
2022-09-30T11:37:01.054Z,74.60
2022-09-30T11:39:52.996Z,74.20
2022-09-30T11:42:36.488Z,74.40
2022-09-30T11:45:26.844Z,74.10
2022-09-30T11:48:33.101Z,74.30
2022-09-30T11:51:25.481Z,73.10
2022-09-30T11:54:43.768Z,72.60
2022-09-30T11:57:38.148Z,72.10
2022-09-30T12:00:21.491Z,73.00
2022-09-30T12:03:09.287Z,72.00
2022-09-30T12:05:50.009Z,71.50
2022-09-30T12:08:27.202Z,72.20
2022-09-30T12:11:00.264Z,71.80
2022-09-30T12:13:37.200Z,72.20
2022-09-30T12:16:20.038Z,72.00
2022-09-30T12:18:58.041Z,71.70
2022-09-30T12:21:54.181Z,71.40
2022-09-30T12:24:41.568Z,70.80
2022-09-30T12:27:30.637Z,70.50
2022-09-30T12:30:19.272Z,70.00
2022-09-30T12:33:20.070Z,69.20
2022-09-30T12:36:21.466Z,69.50
2022-09-30T12:39:36.543Z,69.00
2022-09-30T12:42:48.308Z,68.50
2022-09-30T12:45:45.483Z,69.70
2022-09-30T12:48:22.824Z,69.70
2022-09-30T12:50:58.066Z,69.80
2022-09-30T12:53:39.182Z,69.30
2022-09-30T12:56:10.665Z,69.80
2022-09-30T12:58:48.241Z,69.90
2022-09-30T13:01:27.882Z,69.80
2022-09-30T13:03:59.368Z,69.80
2022-09-30T13:06:47.947Z,69.80
2022-09-30T13:09:31.234Z,69.80
2022-09-30T13:11:59.012Z,69.70
2022-09-30T13:14:35.973Z,69.00
2022-09-30T13:17:10.281Z,68.60
2022-09-30T13:19:58.009Z,68.70
2022-09-30T13:22:30.831Z,68.80
2022-09-30T13:25:03.107Z,68.80
2022-09-30T13:27:47.057Z,69.10
2022-09-30T13:30:16.957Z,69.20
2022-09-30T13:33:02.434Z,69.70
2022-09-30T13:35:48.707Z,69.80
2022-09-30T13:38:33.382Z,70.00
2022-09-30T13:41:22.742Z,70.10
2022-09-30T13:44:14.004Z,70.50
2022-09-30T13:46:54.014Z,70.90
2022-09-30T13:50:00.258Z,71.00
2022-09-30T13:52:35.559Z,70.80
2022-09-30T13:55:38.898Z,71.00
2022-09-30T13:58:50.574Z,71.10
2022-09-30T14:01:48.184Z,71.30
2022-09-30T14:04:51.249Z,71.40
2022-09-30T14:07:54.687Z,71.40
2022-09-30T14:11:07.397Z,71.80
2022-09-30T14:14:15.135Z,72.00
2022-09-30T14:17:26.909Z,72.30
2022-09-30T14:20:23.012Z,72.50
2022-09-30T14:22:50.385Z,72.90
2022-09-30T14:25:21.745Z,72.90
2022-09-30T14:27:57.562Z,73.00
2022-09-30T14:30:27.411Z,73.50
2022-09-30T14:33:11.724Z,73.50
2022-09-30T14:35:42.024Z,74.20
2022-09-30T14:38:20.243Z,73.70
2022-09-30T14:40:57.315Z,74.00
2022-09-30T14:43:37.778Z,73.80
2022-09-30T14:46:34.544Z,73.80
2022-09-30T14:49:11.913Z,73.80
2022-09-30T14:51:47.184Z,73.60
2022-09-30T14:54:29.382Z,73.40
2022-09-30T14:57:00.612Z,73.30
2022-09-30T14:59:34.836Z,73.20
2022-09-30T15:02:18.605Z,73.00
2022-09-30T15:04:52.811Z,72.60
2022-09-30T15:07:20.459Z,72.70
2022-09-30T15:09:50.332Z,72.60
2022-09-30T15:12:22.345Z,72.60
2022-09-30T15:14:59.598Z,72.90
2022-09-30T15:17:38.535Z,73.10
2022-09-30T15:20:38.562Z,73.40
2022-09-30T15:23:18.918Z,73.40
2022-09-30T15:25:46.488Z,73.70
2022-09-30T15:28:15.029Z,73.80
2022-09-30T15:30:43.556Z,73.90
2022-09-30T15:33:20.083Z,74.00
2022-09-30T15:35:47.599Z,73.90
2022-09-30T15:38:24.814Z,74.00
2022-09-30T15:41:08.467Z,74.40
2022-09-30T15:43:45.323Z,74.90
2022-09-30T15:46:20.203Z,75.10
2022-09-30T15:48:48.909Z,75.30
2022-09-30T15:51:42.492Z,75.50
2022-09-30T15:54:27.359Z,76.00
2022-09-30T15:56:54.870Z,76.40
2022-09-30T15:59:23.161Z,76.60
2022-09-30T16:01:52.895Z,77.00
2022-09-30T16:04:23.063Z,77.40
2022-09-30T16:06:59.407Z,77.80
2022-09-30T16:09:41.868Z,78.20
2022-09-30T16:12:15.153Z,78.50
2022-09-30T16:14:51.209Z,78.90
2022-09-30T16:17:44.643Z,79.60
2022-09-30T16:20:15.292Z,80.20
2022-09-30T16:22:42.881Z,80.70
2022-09-30T16:25:31.738Z,81.20
2022-09-30T16:28:12.523Z,81.70
2022-09-30T16:30:52.538Z,82.40
2022-09-30T16:33:20.223Z,82.90
2022-09-30T16:35:48.757Z,83.20
2022-09-30T16:38:17.314Z,83.30
2022-09-30T16:40:44.671Z,83.60
2022-09-30T16:43:12.031Z,83.60
2022-09-30T16:45:41.656Z,84.00
2022-09-30T16:48:18.085Z,84.30
2022-09-30T16:51:06.467Z,84.40
2022-09-30T16:53:35.011Z,84.00
2022-09-30T16:56:02.304Z,84.00
2022-09-30T16:58:31.362Z,84.40
2022-09-30T17:01:02.407Z,84.40
2022-09-30T17:03:33.405Z,84.90
2022-09-30T17:06:02.317Z,85.30
2022-09-30T17:08:30.423Z,85.50
2022-09-30T17:10:57.925Z,85.80
2022-09-30T17:13:26.180Z,86.40
2022-09-30T17:15:53.617Z,85.70
2022-09-30T17:18:22.029Z,85.80
2022-09-30T17:20:58.565Z,85.90
2022-09-30T17:23:26.269Z,86.00
2022-09-30T17:25:54.999Z,85.80
2022-09-30T17:28:22.644Z,86.10
2022-09-30T17:30:50.573Z,86.20
2022-09-30T17:33:20.113Z,86.20
2022-09-30T17:36:02.654Z,86.30
2022-09-30T17:38:30.594Z,86.60
2022-09-30T17:41:16.585Z,86.70
2022-09-30T17:43:45.873Z,86.90
2022-09-30T17:46:31.068Z,86.90
2022-09-30T17:49:00.985Z,86.90
2022-09-30T17:51:28.397Z,87.00
2022-09-30T17:53:57.024Z,87.30
2022-09-30T17:56:24.393Z,87.60
2022-09-30T17:58:51.790Z,87.90
2022-09-30T18:01:21.651Z,88.10
2022-09-30T18:03:53.053Z,88.10
2022-09-30T18:06:21.261Z,87.80
2022-09-30T18:08:50.636Z,87.70
2022-09-30T18:11:23.155Z,87.60
2022-09-30T18:13:59.561Z,87.90
2022-09-30T18:16:30.896Z,88.00
2022-09-30T18:21:46.795Z,88.40
2022-09-30T18:24:14.316Z,89.30
2022-09-30T18:26:41.826Z,88.70
2022-09-30T18:29:09.276Z,88.80
2022-09-30T18:31:41.054Z,88.90
2022-09-30T18:34:13.281Z,89.10
2022-09-30T18:36:40.543Z,89.20
2022-09-30T18:39:07.902Z,89.30
2022-09-30T18:41:43.119Z,89.40
2022-09-30T18:44:12.685Z,89.60
2022-09-30T18:46:40.140Z,89.80
2022-09-30T18:49:07.465Z,89.90
2022-09-30T18:51:35.342Z,90.00
2022-09-30T18:54:04.128Z,90.20
2022-09-30T18:56:33.635Z,90.20
2022-09-30T18:59:04.685Z,90.20
2022-09-30T19:01:35.305Z,90.10
2022-09-30T19:04:04.169Z,90.00
2022-09-30T19:06:33.881Z,90.00
2022-09-30T19:09:01.961Z,90.10
2022-09-30T19:11:30.749Z,90.20
2022-09-30T19:14:03.587Z,90.20
2022-09-30T19:16:38.533Z,90.00
2022-09-30T19:19:10.552Z,89.60
2022-09-30T19:21:39.376Z,90.20
2022-09-30T19:24:09.073Z,90.10
2022-09-30T19:26:39.171Z,90.30
2022-09-30T19:29:10.647Z,90.40
2022-09-30T19:31:38.382Z,90.50
2022-09-30T19:34:06.338Z,90.60
2022-09-30T19:36:46.817Z,90.70
2022-09-30T19:39:18.167Z,90.70
2022-09-30T19:41:46.457Z,90.90
2022-09-30T19:44:19.019Z,91.00
2022-09-30T19:46:50.493Z,91.10
2022-09-30T19:49:18.892Z,91.20
2022-09-30T19:51:46.228Z,91.30
2022-09-30T19:54:13.669Z,91.30
2022-09-30T19:56:40.939Z,91.30
2022-09-30T19:59:08.208Z,91.40
2022-09-30T20:01:36.249Z,91.50
2022-09-30T20:04:05.482Z,91.70
2022-09-30T20:06:35.874Z,91.70
2022-09-30T20:09:05.941Z,91.70
2022-09-30T20:11:37.480Z,91.80
2022-09-30T20:14:26.550Z,91.80
2022-09-30T20:16:54.637Z,92.00
2022-09-30T20:19:23.317Z,92.20
2022-09-30T20:21:52.252Z,92.30
2022-09-30T20:24:19.768Z,92.40
2022-09-30T20:26:48.089Z,92.40
2022-09-30T20:29:15.657Z,92.50
2022-09-30T20:31:44.092Z,92.80
2022-09-30T20:34:15.488Z,93.00
2022-09-30T20:36:45.454Z,93.10
2022-09-30T20:39:12.886Z,93.10
2022-09-30T20:41:40.984Z,93.30
2022-09-30T20:44:16.156Z,93.50
2022-09-30T20:46:43.967Z,93.60
2022-09-30T20:49:11.291Z,93.60
2022-09-30T20:51:38.451Z,93.70
2022-09-30T20:54:06.052Z,94.10
2022-09-30T20:57:02.436Z,94.00
2022-09-30T20:59:21.019Z,94.00
2022-09-30T21:01:48.351Z,94.10
2022-09-30T21:04:15.836Z,94.20
2022-09-30T21:06:43.051Z,94.40
2022-09-30T21:09:13.402Z,94.50
2022-09-30T21:11:42.469Z,94.70
2022-09-30T21:14:10.128Z,94.80
2022-09-30T21:16:37.435Z,94.90
2022-09-30T21:19:07.089Z,95.20
2022-09-30T21:21:34.985Z,94.90
2022-09-30T21:24:02.784Z,94.90
2022-09-30T21:26:30.175Z,94.90
2022-09-30T21:28:57.509Z,95.00
2022-09-30T21:31:27.529Z,95.00
2022-09-30T21:33:59.964Z,95.00
2022-09-30T21:37:09.797Z,95.10
2022-09-30T21:39:57.339Z,95.30
2022-09-30T21:42:32.441Z,95.40
2022-09-30T21:44:59.850Z,95.60
2022-09-30T21:47:27.927Z,95.80
2022-09-30T21:49:57.537Z,95.80
2022-09-30T21:52:26.144Z,95.80
2022-09-30T21:54:55.851Z,95.90
2022-09-30T21:57:23.351Z,96.00
2022-09-30T21:59:51.084Z,96.10
2022-09-30T22:02:18.529Z,96.30
2022-09-30T22:04:46.059Z,96.40
2022-09-30T22:07:15.498Z,96.60
2022-09-30T22:09:44.391Z,96.70
2022-09-30T22:12:12.716Z,96.80
2022-09-30T22:14:39.895Z,97.00
2022-09-30T22:17:10.149Z,97.10
2022-09-30T22:19:38.174Z,97.20
2022-09-30T22:22:05.511Z,97.20
2022-09-30T22:24:33.094Z,97.30
2022-09-30T22:27:00.273Z,97.30
2022-09-30T22:29:27.699Z,97.30
2022-09-30T22:31:54.934Z,97.20
2022-09-30T22:34:41.091Z,97.00
2022-09-30T22:37:28.589Z,97.10
2022-09-30T22:40:00.902Z,97.20
2022-09-30T22:42:29.279Z,97.00
2022-09-30T22:44:56.526Z,96.90
2022-09-30T22:47:24.194Z,96.90
2022-09-30T22:49:51.447Z,97.00
2022-09-30T22:52:18.684Z,97.00
2022-09-30T22:54:46.007Z,97.20
2022-09-30T22:57:13.504Z,97.30
2022-09-30T22:59:41.887Z,97.40
2022-09-30T23:02:09.377Z,97.50
2022-09-30T23:04:36.820Z,97.40
2022-09-30T23:07:08.250Z,97.50
2022-09-30T23:09:36.183Z,97.50
2022-09-30T23:12:03.550Z,97.80
2022-09-30T23:14:30.904Z,97.50
2022-09-30T23:16:58.203Z,97.60
2022-09-30T23:19:25.570Z,97.60
2022-09-30T23:21:52.943Z,97.60
2022-09-30T23:24:20.152Z,97.60
2022-09-30T23:26:47.950Z,97.70
2022-09-30T23:29:15.967Z,97.70
2022-09-30T23:31:43.527Z,97.70
2022-09-30T23:34:10.828Z,97.60
2022-09-30T23:36:38.480Z,97.70
2022-09-30T23:39:20.901Z,97.60
2022-09-30T23:41:49.706Z,97.60
2022-09-30T23:44:20.193Z,97.50
2022-09-30T23:47:09.343Z,97.40
2022-09-30T23:49:36.687Z,97.40
2022-09-30T23:52:10.523Z,97.40
2022-09-30T23:54:42.152Z,97.40
2022-09-30T23:57:10.789Z,97.40
2022-09-30T23:59:38.639Z,97.60
